sensor_id;sensor_type;location;lat;lon;timestamp;temperature;humidity
54960;DHT22;40860;51.710;8.736;2023-05-10T00:02:14;15.60;99.90
54960;DHT22;40860;51.710;8.736;2023-05-10T00:06:19;15.60;99.90
54960;DHT22;40860;51.710;8.736;2023-05-10T00:10:21;15.60;99.90
54960;DHT22;40860;51.710;8.736;2023-05-10T00:14:24;15.60;99.90
54960;DHT22;40860;51.710;8.736;2023-05-10T00:18:34;15.60;99.90
54960;DHT22;40860;51.710;8.736;2023-05-10T00:22:38;15.60;99.90
54960;DHT22;40860;51.710;8.736;2023-05-10T00:26:41;15.60;99.90
54960;DHT22;40860;51.710;8.736;2023-05-10T00:30:44;15.60;99.90
54960;DHT22;40860;51.710;8.736;2023-05-10T00:34:47;15.70;99.90
54960;DHT22;40860;51.710;8.736;2023-05-10T00:38:52;15.70;99.90
54960;DHT22;40860;51.710;8.736;2023-05-10T00:42:55;15.70;99.90
54960;DHT22;40860;51.710;8.736;2023-05-10T00:46:58;15.70;99.90
54960;DHT22;40860;51.710;8.736;2023-05-10T00:51:02;15.70;99.90
54960;DHT22;40860;51.710;8.736;2023-05-10T00:55:09;15.60;99.90
54960;DHT22;40860;51.710;8.736;2023-05-10T00:59:13;15.60;99.90
54960;DHT22;40860;51.710;8.736;2023-05-10T01:03:16;15.60;99.90
54960;DHT22;40860;51.710;8.736;2023-05-10T01:07:20;15.60;99.90
54960;DHT22;40860;51.710;8.736;2023-05-10T01:11:24;15.60;99.90
54960;DHT22;40860;51.710;8.736;2023-05-10T01:15:27;15.50;99.90
54960;DHT22;40860;51.710;8.736;2023-05-10T01:19:31;15.50;99.90
54960;DHT22;40860;51.710;8.736;2023-05-10T01:23:46;15.50;99.90
54960;DHT22;40860;51.710;8.736;2023-05-10T01:28:21;15.50;99.90
54960;DHT22;40860;51.710;8.736;2023-05-10T01:32:36;15.40;99.90
54960;DHT22;40860;51.710;8.736;2023-05-10T01:36:45;15.40;99.90
54960;DHT22;40860;51.710;8.736;2023-05-10T01:40:59;15.30;99.90
54960;DHT22;40860;51.710;8.736;2023-05-10T01:45:10;15.20;99.90
54960;DHT22;40860;51.710;8.736;2023-05-10T01:49:21;15.20;99.90
54960;DHT22;40860;51.710;8.736;2023-05-10T01:53:26;15.10;99.90
54960;DHT22;40860;51.710;8.736;2023-05-10T01:57:33;14.90;99.90
54960;DHT22;40860;51.710;8.736;2023-05-10T02:01:36;14.80;99.90
54960;DHT22;40860;51.710;8.736;2023-05-10T02:05:41;14.60;99.90
54960;DHT22;40860;51.710;8.736;2023-05-10T02:09:46;14.40;99.90
54960;DHT22;40860;51.710;8.736;2023-05-10T02:13:50;14.30;99.90
54960;DHT22;40860;51.710;8.736;2023-05-10T02:18:00;14.20;99.90
54960;DHT22;40860;51.710;8.736;2023-05-10T02:22:12;14.10;99.90
54960;DHT22;40860;51.710;8.736;2023-05-10T02:26:20;14.10;99.90
54960;DHT22;40860;51.710;8.736;2023-05-10T02:30:24;14.10;99.90
54960;DHT22;40860;51.710;8.736;2023-05-10T02:34:28;14.00;99.90
54960;DHT22;40860;51.710;8.736;2023-05-10T02:38:34;14.00;99.90
54960;DHT22;40860;51.710;8.736;2023-05-10T02:42:42;13.90;99.90
54960;DHT22;40860;51.710;8.736;2023-05-10T02:46:46;14.00;99.90
54960;DHT22;40860;51.710;8.736;2023-05-10T02:50:51;13.90;99.90
54960;DHT22;40860;51.710;8.736;2023-05-10T02:55:00;13.90;99.90
54960;DHT22;40860;51.710;8.736;2023-05-10T02:59:03;13.90;99.90
54960;DHT22;40860;51.710;8.736;2023-05-10T03:03:06;13.80;99.90
54960;DHT22;40860;51.710;8.736;2023-05-10T03:07:09;13.80;99.90
54960;DHT22;40860;51.710;8.736;2023-05-10T03:11:28;13.80;99.90
54960;DHT22;40860;51.710;8.736;2023-05-10T03:15:42;13.80;99.90
54960;DHT22;40860;51.710;8.736;2023-05-10T03:20:09;13.80;99.90
54960;DHT22;40860;51.710;8.736;2023-05-10T03:24:14;13.90;99.90
54960;DHT22;40860;51.710;8.736;2023-05-10T03:28:21;13.90;99.90
54960;DHT22;40860;51.710;8.736;2023-05-10T03:32:25;13.80;99.90
54960;DHT22;40860;51.710;8.736;2023-05-10T03:36:29;13.80;99.90
54960;DHT22;40860;51.710;8.736;2023-05-10T03:40:32;13.80;99.90
54960;DHT22;40860;51.710;8.736;2023-05-10T03:44:37;13.70;99.90
54960;DHT22;40860;51.710;8.736;2023-05-10T03:48:40;13.70;99.90
54960;DHT22;40860;51.710;8.736;2023-05-10T03:52:43;13.70;99.90
54960;DHT22;40860;51.710;8.736;2023-05-10T03:56:46;13.70;99.90
54960;DHT22;40860;51.710;8.736;2023-05-10T04:00:53;13.60;99.90
54960;DHT22;40860;51.710;8.736;2023-05-10T04:04:55;13.70;99.90
54960;DHT22;40860;51.710;8.736;2023-05-10T04:08:59;13.70;99.90
54960;DHT22;40860;51.710;8.736;2023-05-10T04:13:05;13.60;99.90
54960;DHT22;40860;51.710;8.736;2023-05-10T04:17:09;13.70;99.90
54960;DHT22;40860;51.710;8.736;2023-05-10T04:21:12;13.60;99.90
54960;DHT22;40860;51.710;8.736;2023-05-10T04:25:15;13.60;99.90
54960;DHT22;40860;51.710;8.736;2023-05-10T04:29:19;13.60;99.90
54960;DHT22;40860;51.710;8.736;2023-05-10T04:33:24;13.50;99.90
54960;DHT22;40860;51.710;8.736;2023-05-10T04:37:27;13.60;99.90
54960;DHT22;40860;51.710;8.736;2023-05-10T04:41:30;13.60;99.90
54960;DHT22;40860;51.710;8.736;2023-05-10T04:45:33;13.60;99.90
54960;DHT22;40860;51.710;8.736;2023-05-10T04:49:37;13.50;99.90
54960;DHT22;40860;51.710;8.736;2023-05-10T04:53:40;13.50;99.90
54960;DHT22;40860;51.710;8.736;2023-05-10T04:57:51;13.50;99.90
54960;DHT22;40860;51.710;8.736;2023-05-10T05:01:54;13.50;99.90
54960;DHT22;40860;51.710;8.736;2023-05-10T05:05:58;13.50;99.90
54960;DHT22;40860;51.710;8.736;2023-05-10T05:10:01;13.50;99.90
54960;DHT22;40860;51.710;8.736;2023-05-10T05:14:04;13.50;99.90
54960;DHT22;40860;51.710;8.736;2023-05-10T05:18:07;13.40;99.90
54960;DHT22;40860;51.710;8.736;2023-05-10T05:22:11;13.40;99.90
54960;DHT22;40860;51.710;8.736;2023-05-10T05:26:14;13.30;99.90
54960;DHT22;40860;51.710;8.736;2023-05-10T05:30:17;13.40;99.90
54960;DHT22;40860;51.710;8.736;2023-05-10T05:34:20;13.30;99.90
54960;DHT22;40860;51.710;8.736;2023-05-10T05:38:25;13.30;99.90
54960;DHT22;40860;51.710;8.736;2023-05-10T05:42:28;13.30;99.90
54960;DHT22;40860;51.710;8.736;2023-05-10T05:46:30;13.30;99.90
54960;DHT22;40860;51.710;8.736;2023-05-10T05:50:33;13.30;99.90
54960;DHT22;40860;51.710;8.736;2023-05-10T05:54:37;13.30;99.90
54960;DHT22;40860;51.710;8.736;2023-05-10T05:58:40;13.30;99.90
54960;DHT22;40860;51.710;8.736;2023-05-10T06:02:43;13.30;99.90
54960;DHT22;40860;51.710;8.736;2023-05-10T06:06:46;13.20;99.90
54960;DHT22;40860;51.710;8.736;2023-05-10T06:10:51;13.20;99.90
54960;DHT22;40860;51.710;8.736;2023-05-10T06:14:53;13.10;99.90
54960;DHT22;40860;51.710;8.736;2023-05-10T06:18:56;13.10;99.90
54960;DHT22;40860;51.710;8.736;2023-05-10T06:22:59;13.20;99.90
54960;DHT22;40860;51.710;8.736;2023-05-10T06:27:03;13.20;99.90
54960;DHT22;40860;51.710;8.736;2023-05-10T06:31:06;13.10;99.90
54960;DHT22;40860;51.710;8.736;2023-05-10T06:35:09;13.10;99.90
54960;DHT22;40860;51.710;8.736;2023-05-10T06:39:12;13.20;99.90
54960;DHT22;40860;51.710;8.736;2023-05-10T06:43:16;13.30;99.90
54960;DHT22;40860;51.710;8.736;2023-05-10T06:47:19;13.30;99.90
54960;DHT22;40860;51.710;8.736;2023-05-10T06:51:23;13.40;99.90
54960;DHT22;40860;51.710;8.736;2023-05-10T06:55:26;13.40;99.90
54960;DHT22;40860;51.710;8.736;2023-05-10T06:59:30;13.40;99.90
54960;DHT22;40860;51.710;8.736;2023-05-10T07:03:33;13.40;99.90
54960;DHT22;40860;51.710;8.736;2023-05-10T07:07:37;13.50;99.90
54960;DHT22;40860;51.710;8.736;2023-05-10T07:11:41;13.50;99.90
54960;DHT22;40860;51.710;8.736;2023-05-10T07:15:45;13.60;99.90
54960;DHT22;40860;51.710;8.736;2023-05-10T07:19:48;13.60;99.90
54960;DHT22;40860;51.710;8.736;2023-05-10T07:23:51;13.70;99.90
54960;DHT22;40860;51.710;8.736;2023-05-10T07:27:54;13.80;99.90
54960;DHT22;40860;51.710;8.736;2023-05-10T07:31:58;14.00;99.90
54960;DHT22;40860;51.710;8.736;2023-05-10T07:36:01;14.10;99.90
54960;DHT22;40860;51.710;8.736;2023-05-10T07:40:05;14.10;99.90
54960;DHT22;40860;51.710;8.736;2023-05-10T07:44:08;14.20;99.90
54960;DHT22;40860;51.710;8.736;2023-05-10T07:48:12;14.40;99.90
54960;DHT22;40860;51.710;8.736;2023-05-10T07:52:15;14.50;99.90
54960;DHT22;40860;51.710;8.736;2023-05-10T07:56:23;14.70;99.90
54960;DHT22;40860;51.710;8.736;2023-05-10T08:00:27;14.70;99.90
54960;DHT22;40860;51.710;8.736;2023-05-10T08:04:31;14.80;99.90
54960;DHT22;40860;51.710;8.736;2023-05-10T08:08:33;14.80;99.90
54960;DHT22;40860;51.710;8.736;2023-05-10T08:12:36;14.70;99.90
54960;DHT22;40860;51.710;8.736;2023-05-10T08:16:40;14.60;99.90
54960;DHT22;40860;51.710;8.736;2023-05-10T08:20:44;14.50;99.90
54960;DHT22;40860;51.710;8.736;2023-05-10T08:24:47;14.40;99.90
54960;DHT22;40860;51.710;8.736;2023-05-10T08:28:50;14.30;99.90
54960;DHT22;40860;51.710;8.736;2023-05-10T08:32:52;14.30;99.90
54960;DHT22;40860;51.710;8.736;2023-05-10T08:36:57;14.30;99.90
54960;DHT22;40860;51.710;8.736;2023-05-10T08:41:02;14.50;99.90
54960;DHT22;40860;51.710;8.736;2023-05-10T08:45:06;14.50;99.90
54960;DHT22;40860;51.710;8.736;2023-05-10T08:49:11;14.50;99.90
54960;DHT22;40860;51.710;8.736;2023-05-10T08:53:17;14.50;99.90
54960;DHT22;40860;51.710;8.736;2023-05-10T08:57:21;14.50;99.90
54960;DHT22;40860;51.710;8.736;2023-05-10T09:01:24;14.40;99.90
54960;DHT22;40860;51.710;8.736;2023-05-10T09:05:28;14.50;99.90
54960;DHT22;40860;51.710;8.736;2023-05-10T09:09:33;14.70;99.90
54960;DHT22;40860;51.710;8.736;2023-05-10T09:13:36;14.90;99.90
54960;DHT22;40860;51.710;8.736;2023-05-10T09:17:40;15.10;99.90
54960;DHT22;40860;51.710;8.736;2023-05-10T09:21:44;15.30;99.90
54960;DHT22;40860;51.710;8.736;2023-05-10T09:26:01;15.50;99.90
54960;DHT22;40860;51.710;8.736;2023-05-10T09:30:07;15.60;99.90
54960;DHT22;40860;51.710;8.736;2023-05-10T09:34:10;15.70;99.90
54960;DHT22;40860;51.710;8.736;2023-05-10T09:38:13;15.90;99.90
54960;DHT22;40860;51.710;8.736;2023-05-10T09:42:18;16.20;99.90
54960;DHT22;40860;51.710;8.736;2023-05-10T09:46:21;16.70;99.90
54960;DHT22;40860;51.710;8.736;2023-05-10T09:50:24;16.90;99.90
54960;DHT22;40860;51.710;8.736;2023-05-10T09:54:27;17.40;99.90
54960;DHT22;40860;51.710;8.736;2023-05-10T09:58:36;18.00;99.90
54960;DHT22;40860;51.710;8.736;2023-05-10T10:02:39;18.40;99.90
54960;DHT22;40860;51.710;8.736;2023-05-10T10:06:42;18.70;99.50
54960;DHT22;40860;51.710;8.736;2023-05-10T10:10:46;18.80;98.20
54960;DHT22;40860;51.710;8.736;2023-05-10T10:14:52;18.70;97.60
54960;DHT22;40860;51.710;8.736;2023-05-10T10:18:56;19.10;98.00
54960;DHT22;40860;51.710;8.736;2023-05-10T10:22:59;19.00;96.70
54960;DHT22;40860;51.710;8.736;2023-05-10T10:27:18;18.80;96.10
54960;DHT22;40860;51.710;8.736;2023-05-10T10:31:32;18.70;96.10
54960;DHT22;40860;51.710;8.736;2023-05-10T10:35:59;19.10;95.90
54960;DHT22;40860;51.710;8.736;2023-05-10T10:40:22;19.10;95.70
54960;DHT22;40860;51.710;8.736;2023-05-10T10:44:41;18.90;96.10
54960;DHT22;40860;51.710;8.736;2023-05-10T10:48:49;18.80;95.70
54960;DHT22;40860;51.710;8.736;2023-05-10T10:53:10;18.60;95.90
54960;DHT22;40860;51.710;8.736;2023-05-10T10:57:14;18.30;96.10
54960;DHT22;40860;51.710;8.736;2023-05-10T11:01:20;18.30;96.20
54960;DHT22;40860;51.710;8.736;2023-05-10T11:05:33;18.90;95.60
54960;DHT22;40860;51.710;8.736;2023-05-10T11:09:40;19.00;93.70
54960;DHT22;40860;51.710;8.736;2023-05-10T11:13:43;18.60;93.40
54960;DHT22;40860;51.710;8.736;2023-05-10T11:17:50;18.60;94.80
54960;DHT22;40860;51.710;8.736;2023-05-10T11:22:13;18.80;94.70
54960;DHT22;40860;51.710;8.736;2023-05-10T11:26:17;19.20;93.80
54960;DHT22;40860;51.710;8.736;2023-05-10T11:30:20;19.20;93.80
54960;DHT22;40860;51.710;8.736;2023-05-10T11:34:26;19.10;93.50
54960;DHT22;40860;51.710;8.736;2023-05-10T11:38:33;18.90;93.10
54960;DHT22;40860;51.710;8.736;2023-05-10T11:42:36;18.70;93.90
54960;DHT22;40860;51.710;8.736;2023-05-10T11:46:39;18.50;95.40
54960;DHT22;40860;51.710;8.736;2023-05-10T11:50:46;18.60;96.10
54960;DHT22;40860;51.710;8.736;2023-05-10T11:54:57;19.10;96.10
54960;DHT22;40860;51.710;8.736;2023-05-10T11:59:00;19.60;93.30
54960;DHT22;40860;51.710;8.736;2023-05-10T12:03:03;19.80;91.70
54960;DHT22;40860;51.710;8.736;2023-05-10T12:07:09;19.90;91.50
54960;DHT22;40860;51.710;8.736;2023-05-10T12:11:14;19.80;90.70
54960;DHT22;40860;51.710;8.736;2023-05-10T12:15:18;19.50;90.90
54960;DHT22;40860;51.710;8.736;2023-05-10T12:19:22;18.90;91.30
54960;DHT22;40860;51.710;8.736;2023-05-10T12:23:26;18.20;94.00
54960;DHT22;40860;51.710;8.736;2023-05-10T12:27:33;17.70;95.50
54960;DHT22;40860;51.710;8.736;2023-05-10T12:31:51;17.50;96.50
54960;DHT22;40860;51.710;8.736;2023-05-10T12:35:54;17.20;97.50
54960;DHT22;40860;51.710;8.736;2023-05-10T12:39:58;17.20;98.30
54960;DHT22;40860;51.710;8.736;2023-05-10T12:44:04;17.30;96.20
54960;DHT22;40860;51.710;8.736;2023-05-10T12:48:07;17.40;95.90
54960;DHT22;40860;51.710;8.736;2023-05-10T12:52:10;17.60;96.60
54960;DHT22;40860;51.710;8.736;2023-05-10T12:56:16;17.70;94.90
54960;DHT22;40860;51.710;8.736;2023-05-10T13:00:21;17.80;94.90
54960;DHT22;40860;51.710;8.736;2023-05-10T13:04:24;18.00;94.20
54960;DHT22;40860;51.710;8.736;2023-05-10T13:08:30;18.20;93.50
54960;DHT22;40860;51.710;8.736;2023-05-10T13:12:35;18.30;92.80
54960;DHT22;40860;51.710;8.736;2023-05-10T13:16:39;18.30;93.00
54960;DHT22;40860;51.710;8.736;2023-05-10T13:20:42;18.30;91.80
54960;DHT22;40860;51.710;8.736;2023-05-10T13:24:45;18.20;91.30
54960;DHT22;40860;51.710;8.736;2023-05-10T13:28:48;18.30;91.30
54960;DHT22;40860;51.710;8.736;2023-05-10T13:32:54;18.40;92.20
54960;DHT22;40860;51.710;8.736;2023-05-10T13:36:57;18.50;92.20
54960;DHT22;40860;51.710;8.736;2023-05-10T13:41:00;18.80;92.30
54960;DHT22;40860;51.710;8.736;2023-05-10T13:45:04;18.90;90.00
54960;DHT22;40860;51.710;8.736;2023-05-10T13:49:09;19.10;90.30
54960;DHT22;40860;51.710;8.736;2023-05-10T13:53:12;19.30;90.90
54960;DHT22;40860;51.710;8.736;2023-05-10T13:57:15;19.30;91.00
54960;DHT22;40860;51.710;8.736;2023-05-10T14:01:18;19.30;89.80
54960;DHT22;40860;51.710;8.736;2023-05-10T14:05:23;19.20;90.70
54960;DHT22;40860;51.710;8.736;2023-05-10T14:09:27;19.10;91.00
54960;DHT22;40860;51.710;8.736;2023-05-10T14:13:30;18.90;91.60
54960;DHT22;40860;51.710;8.736;2023-05-10T14:17:33;18.40;91.90
54960;DHT22;40860;51.710;8.736;2023-05-10T14:21:37;17.50;95.70
54960;DHT22;40860;51.710;8.736;2023-05-10T14:25:40;16.70;98.30
54960;DHT22;40860;51.710;8.736;2023-05-10T14:29:43;16.40;99.90
54960;DHT22;40860;51.710;8.736;2023-05-10T14:33:46;16.10;99.90
54960;DHT22;40860;51.710;8.736;2023-05-10T14:37:50;15.90;99.90
54960;DHT22;40860;51.710;8.736;2023-05-10T14:41:53;15.80;99.90
54960;DHT22;40860;51.710;8.736;2023-05-10T14:45:56;15.70;99.90
54960;DHT22;40860;51.710;8.736;2023-05-10T14:49:59;15.60;99.90
54960;DHT22;40860;51.710;8.736;2023-05-10T14:54:04;15.60;99.90
54960;DHT22;40860;51.710;8.736;2023-05-10T14:58:07;15.50;99.90
54960;DHT22;40860;51.710;8.736;2023-05-10T15:02:10;15.40;99.90
54960;DHT22;40860;51.710;8.736;2023-05-10T15:06:14;15.30;99.90
54960;DHT22;40860;51.710;8.736;2023-05-10T15:10:18;15.10;99.90
54960;DHT22;40860;51.710;8.736;2023-05-10T15:14:21;15.00;99.90
54960;DHT22;40860;51.710;8.736;2023-05-10T15:18:24;15.10;99.90
54960;DHT22;40860;51.710;8.736;2023-05-10T15:22:28;15.10;99.90
54960;DHT22;40860;51.710;8.736;2023-05-10T15:26:34;15.10;99.90
54960;DHT22;40860;51.710;8.736;2023-05-10T15:30:38;15.20;99.90
54960;DHT22;40860;51.710;8.736;2023-05-10T15:34:41;15.40;99.90
54960;DHT22;40860;51.710;8.736;2023-05-10T15:38:44;15.40;99.90
54960;DHT22;40860;51.710;8.736;2023-05-10T15:42:48;15.40;99.90
54960;DHT22;40860;51.710;8.736;2023-05-10T15:46:51;15.40;99.90
54960;DHT22;40860;51.710;8.736;2023-05-10T15:50:55;15.40;99.90
54960;DHT22;40860;51.710;8.736;2023-05-10T15:54:58;15.30;99.90
54960;DHT22;40860;51.710;8.736;2023-05-10T15:59:02;15.20;99.90
54960;DHT22;40860;51.710;8.736;2023-05-10T16:03:07;15.20;99.90
54960;DHT22;40860;51.710;8.736;2023-05-10T16:07:10;15.10;99.90
54960;DHT22;40860;51.710;8.736;2023-05-10T16:11:13;14.90;99.90
54960;DHT22;40860;51.710;8.736;2023-05-10T16:15:18;14.90;99.90
54960;DHT22;40860;51.710;8.736;2023-05-10T16:19:22;14.80;99.90
54960;DHT22;40860;51.710;8.736;2023-05-10T16:23:25;14.80;99.90
54960;DHT22;40860;51.710;8.736;2023-05-10T16:27:36;14.70;99.90
54960;DHT22;40860;51.710;8.736;2023-05-10T16:31:41;14.70;99.90
54960;DHT22;40860;51.710;8.736;2023-05-10T16:35:44;14.60;99.90
54960;DHT22;40860;51.710;8.736;2023-05-10T16:39:47;14.60;99.90
54960;DHT22;40860;51.710;8.736;2023-05-10T16:43:50;14.50;99.90
54960;DHT22;40860;51.710;8.736;2023-05-10T16:47:55;14.50;99.90
54960;DHT22;40860;51.710;8.736;2023-05-10T16:52:04;14.50;99.90
54960;DHT22;40860;51.710;8.736;2023-05-10T16:56:08;14.50;99.90
54960;DHT22;40860;51.710;8.736;2023-05-10T17:00:12;14.50;99.90
54960;DHT22;40860;51.710;8.736;2023-05-10T17:04:16;14.40;99.90
54960;DHT22;40860;51.710;8.736;2023-05-10T17:08:20;14.30;99.90
54960;DHT22;40860;51.710;8.736;2023-05-10T17:12:23;14.20;99.90
54960;DHT22;40860;51.710;8.736;2023-05-10T17:16:27;14.20;99.90
54960;DHT22;40860;51.710;8.736;2023-05-10T17:20:32;14.20;99.90
54960;DHT22;40860;51.710;8.736;2023-05-10T17:24:35;14.30;99.90
54960;DHT22;40860;51.710;8.736;2023-05-10T17:28:38;14.30;99.90
54960;DHT22;40860;51.710;8.736;2023-05-10T17:32:41;14.30;99.90
54960;DHT22;40860;51.710;8.736;2023-05-10T17:36:46;14.20;99.90
54960;DHT22;40860;51.710;8.736;2023-05-10T17:40:50;14.20;99.90
54960;DHT22;40860;51.710;8.736;2023-05-10T17:44:53;14.20;99.90
54960;DHT22;40860;51.710;8.736;2023-05-10T17:48:56;14.20;99.90
54960;DHT22;40860;51.710;8.736;2023-05-10T17:53:00;14.20;99.90
54960;DHT22;40860;51.710;8.736;2023-05-10T17:57:04;14.30;99.90
54960;DHT22;40860;51.710;8.736;2023-05-10T18:01:07;14.30;99.90
54960;DHT22;40860;51.710;8.736;2023-05-10T18:05:11;14.40;99.90
54960;DHT22;40860;51.710;8.736;2023-05-10T18:09:16;14.40;99.90
54960;DHT22;40860;51.710;8.736;2023-05-10T18:13:19;14.40;99.90
54960;DHT22;40860;51.710;8.736;2023-05-10T18:17:22;14.40;99.90
54960;DHT22;40860;51.710;8.736;2023-05-10T18:21:25;14.30;99.90
54960;DHT22;40860;51.710;8.736;2023-05-10T18:25:30;14.30;99.90
54960;DHT22;40860;51.710;8.736;2023-05-10T18:29:33;14.30;99.90
54960;DHT22;40860;51.710;8.736;2023-05-10T18:33:37;14.20;99.90
54960;DHT22;40860;51.710;8.736;2023-05-10T18:37:41;14.10;99.90
54960;DHT22;40860;51.710;8.736;2023-05-10T18:41:45;14.00;99.90
54960;DHT22;40860;51.710;8.736;2023-05-10T18:45:48;14.00;99.90
54960;DHT22;40860;51.710;8.736;2023-05-10T18:49:52;14.00;99.90
54960;DHT22;40860;51.710;8.736;2023-05-10T18:53:55;14.00;99.90
54960;DHT22;40860;51.710;8.736;2023-05-10T18:57:59;14.00;99.90
54960;DHT22;40860;51.710;8.736;2023-05-10T19:02:03;14.00;99.90
54960;DHT22;40860;51.710;8.736;2023-05-10T19:06:06;13.90;99.90
54960;DHT22;40860;51.710;8.736;2023-05-10T19:10:10;13.90;99.90
54960;DHT22;40860;51.710;8.736;2023-05-10T19:14:16;13.90;99.90
54960;DHT22;40860;51.710;8.736;2023-05-10T19:18:19;13.90;99.90
54960;DHT22;40860;51.710;8.736;2023-05-10T19:22:23;13.90;99.90
54960;DHT22;40860;51.710;8.736;2023-05-10T19:26:46;13.90;99.90
54960;DHT22;40860;51.710;8.736;2023-05-10T19:30:51;14.00;99.90
54960;DHT22;40860;51.710;8.736;2023-05-10T19:34:54;14.00;99.90
54960;DHT22;40860;51.710;8.736;2023-05-10T19:38:57;14.00;99.90
54960;DHT22;40860;51.710;8.736;2023-05-10T19:43:00;14.00;99.90
54960;DHT22;40860;51.710;8.736;2023-05-10T19:47:05;13.90;99.90
54960;DHT22;40860;51.710;8.736;2023-05-10T19:51:09;13.90;99.90
54960;DHT22;40860;51.710;8.736;2023-05-10T19:55:14;13.90;99.90
54960;DHT22;40860;51.710;8.736;2023-05-10T19:59:17;13.90;99.90
54960;DHT22;40860;51.710;8.736;2023-05-10T20:03:22;13.80;99.90
54960;DHT22;40860;51.710;8.736;2023-05-10T20:07:25;13.80;99.90
54960;DHT22;40860;51.710;8.736;2023-05-10T20:11:28;13.80;99.90
54960;DHT22;40860;51.710;8.736;2023-05-10T20:15:31;13.80;99.90
54960;DHT22;40860;51.710;8.736;2023-05-10T20:19:36;13.80;99.90
54960;DHT22;40860;51.710;8.736;2023-05-10T20:23:39;13.90;99.90
54960;DHT22;40860;51.710;8.736;2023-05-10T20:27:42;13.90;99.90
54960;DHT22;40860;51.710;8.736;2023-05-10T20:31:45;13.90;99.90
54960;DHT22;40860;51.710;8.736;2023-05-10T20:35:50;13.90;99.90
54960;DHT22;40860;51.710;8.736;2023-05-10T20:39:54;13.80;99.90
54960;DHT22;40860;51.710;8.736;2023-05-10T20:43:58;13.70;99.90
54960;DHT22;40860;51.710;8.736;2023-05-10T20:48:01;13.70;99.90
54960;DHT22;40860;51.710;8.736;2023-05-10T20:52:06;13.70;99.90
54960;DHT22;40860;51.710;8.736;2023-05-10T20:56:10;13.70;99.90
54960;DHT22;40860;51.710;8.736;2023-05-10T21:00:14;13.60;99.90
54960;DHT22;40860;51.710;8.736;2023-05-10T21:04:17;13.60;99.90
54960;DHT22;40860;51.710;8.736;2023-05-10T21:08:22;13.60;99.90
54960;DHT22;40860;51.710;8.736;2023-05-10T21:12:25;13.60;99.90
54960;DHT22;40860;51.710;8.736;2023-05-10T21:16:28;13.60;99.90
54960;DHT22;40860;51.710;8.736;2023-05-10T21:20:31;13.40;99.90
54960;DHT22;40860;51.710;8.736;2023-05-10T21:24:36;13.40;99.90
54960;DHT22;40860;51.710;8.736;2023-05-10T21:28:40;13.40;99.90
54960;DHT22;40860;51.710;8.736;2023-05-10T21:32:44;13.30;99.90
54960;DHT22;40860;51.710;8.736;2023-05-10T21:36:50;13.40;99.90
54960;DHT22;40860;51.710;8.736;2023-05-10T21:40:55;13.40;99.90
54960;DHT22;40860;51.710;8.736;2023-05-10T21:44:58;13.30;99.90
54960;DHT22;40860;51.710;8.736;2023-05-10T21:49:01;13.30;99.90
54960;DHT22;40860;51.710;8.736;2023-05-10T21:53:05;13.20;99.90
54960;DHT22;40860;51.710;8.736;2023-05-10T21:57:15;13.30;99.90
54960;DHT22;40860;51.710;8.736;2023-05-10T22:01:25;13.20;99.90
54960;DHT22;40860;51.710;8.736;2023-05-10T22:05:33;13.20;99.90
54960;DHT22;40860;51.710;8.736;2023-05-10T22:09:40;13.20;99.90
54960;DHT22;40860;51.710;8.736;2023-05-10T22:13:51;13.20;99.90
54960;DHT22;40860;51.710;8.736;2023-05-10T22:18:07;13.20;99.90
54960;DHT22;40860;51.710;8.736;2023-05-10T22:22:22;13.20;99.90
54960;DHT22;40860;51.710;8.736;2023-05-10T22:26:31;13.20;99.90
54960;DHT22;40860;51.710;8.736;2023-05-10T22:36:19;13.20;99.90
54960;DHT22;40860;51.710;8.736;2023-05-10T22:40:25;13.20;99.90
54960;DHT22;40860;51.710;8.736;2023-05-10T22:44:35;13.20;99.90
54960;DHT22;40860;51.710;8.736;2023-05-10T22:48:41;13.20;99.90
54960;DHT22;40860;51.710;8.736;2023-05-10T22:52:45;13.30;99.90
54960;DHT22;40860;51.710;8.736;2023-05-10T22:56:48;13.30;99.90
54960;DHT22;40860;51.710;8.736;2023-05-10T23:00:52;13.20;99.90
54960;DHT22;40860;51.710;8.736;2023-05-10T23:04:57;13.20;99.90
54960;DHT22;40860;51.710;8.736;2023-05-10T23:09:01;13.20;99.90
54960;DHT22;40860;51.710;8.736;2023-05-10T23:13:12;13.20;99.90
54960;DHT22;40860;51.710;8.736;2023-05-10T23:17:17;13.20;99.90
54960;DHT22;40860;51.710;8.736;2023-05-10T23:21:22;13.20;99.90
54960;DHT22;40860;51.710;8.736;2023-05-10T23:25:28;13.20;99.90
54960;DHT22;40860;51.710;8.736;2023-05-10T23:29:37;13.20;99.90
54960;DHT22;40860;51.710;8.736;2023-05-10T23:33:43;13.20;99.90
54960;DHT22;40860;51.710;8.736;2023-05-10T23:43:44;13.10;99.90
